createdAt,value
2023-03-27T00:01:30.670Z,0.60
2023-03-27T00:03:59.292Z,0.50
2023-03-27T00:06:27.873Z,0.80
2023-03-27T00:08:56.305Z,0.65
2023-03-27T00:11:25.761Z,0.70
2023-03-27T00:13:54.879Z,0.70
2023-03-27T00:16:26.409Z,0.70
2023-03-27T00:18:56.961Z,0.60
2023-03-27T00:21:26.206Z,0.60
2023-03-27T00:23:56.467Z,0.75
2023-03-27T00:26:25.105Z,0.77
2023-03-27T00:28:54.784Z,0.60
2023-03-27T00:31:23.524Z,0.65
2023-03-27T00:33:52.282Z,0.70
2023-03-27T00:36:22.146Z,0.80
2023-03-27T00:38:52.997Z,0.70
2023-03-27T00:41:22.191Z,0.70
2023-03-27T00:43:54.023Z,0.70
2023-03-27T00:46:31.457Z,0.63
2023-03-27T00:49:04.696Z,0.60
2023-03-27T00:51:37.598Z,0.60
2023-03-27T00:54:07.064Z,0.77
2023-03-27T00:56:38.471Z,0.30
2023-03-27T00:59:11.249Z,0.60
2023-03-27T01:01:41.295Z,0.52
2023-03-27T01:04:12.184Z,0.43
2023-03-27T01:06:43.367Z,0.70
2023-03-27T01:09:20.202Z,0.73
2023-03-27T01:12:02.278Z,0.68
2023-03-27T01:14:41.167Z,0.70
2023-03-27T01:17:27.540Z,0.82
2023-03-27T01:20:38.207Z,0.50
2023-03-27T01:26:35.700Z,0.70
2023-03-27T01:29:15.152Z,0.68
2023-03-27T01:32:00.634Z,0.70
2023-03-27T01:35:01.334Z,0.50
2023-03-27T01:37:51.664Z,0.55
2023-03-27T01:40:27.434Z,0.57
2023-03-27T01:43:02.303Z,0.57
2023-03-27T01:45:41.950Z,0.60
2023-03-27T01:48:16.853Z,0.70
2023-03-27T01:50:48.651Z,0.60
2023-03-27T01:53:22.310Z,0.70
2023-03-27T01:55:58.165Z,0.52
2023-03-27T01:58:33.161Z,0.55
2023-03-27T02:01:03.841Z,0.60
2023-03-27T02:03:35.764Z,0.73
2023-03-27T02:06:10.053Z,0.60
2023-03-27T02:08:44.922Z,0.60
2023-03-27T02:11:18.982Z,0.60
2023-03-27T02:13:52.303Z,0.60
2023-03-27T02:16:35.672Z,0.60
2023-03-27T02:19:10.039Z,0.57
2023-03-27T02:21:38.516Z,0.57
2023-03-27T02:24:08.910Z,0.60
2023-03-27T02:26:39.113Z,0.60
2023-03-27T02:29:24.394Z,0.50
2023-03-27T02:32:05.734Z,0.43
2023-03-27T02:34:57.053Z,0.40
2023-03-27T02:37:37.465Z,0.65
2023-03-27T02:40:40.027Z,0.50
2023-03-27T02:43:33.407Z,0.45
2023-03-27T02:46:10.658Z,0.50
2023-03-27T02:48:44.154Z,0.65
2023-03-27T02:51:16.760Z,0.52
2023-03-27T02:53:49.579Z,0.45
2023-03-27T02:56:21.107Z,0.55
2023-03-27T02:58:57.199Z,0.60
2023-03-27T03:01:42.457Z,0.50
2023-03-27T03:04:17.782Z,0.50
2023-03-27T03:07:06.440Z,0.50
2023-03-27T03:09:40.417Z,0.50
2023-03-27T03:12:10.648Z,0.60
2023-03-27T03:14:44.993Z,0.30
2023-03-27T03:17:14.047Z,0.55
2023-03-27T03:19:42.596Z,0.50
2023-03-27T03:22:11.708Z,0.40
2023-03-27T03:24:44.005Z,0.47
2023-03-27T03:27:20.757Z,0.50
2023-03-27T03:30:00.685Z,0.50
2023-03-27T03:32:30.545Z,0.40
2023-03-27T03:35:01.502Z,0.55
2023-03-27T03:37:38.481Z,0.47
2023-03-27T03:40:11.842Z,0.50
2023-03-27T03:42:47.382Z,0.60
2023-03-27T03:45:18.683Z,0.40
2023-03-27T03:47:47.290Z,0.40
2023-03-27T03:50:16.440Z,0.50
2023-03-27T03:52:47.015Z,0.43
2023-03-27T03:55:16.147Z,0.40
2023-03-27T03:57:48.064Z,0.60
2023-03-27T04:00:25.618Z,0.70
2023-03-27T04:02:57.156Z,0.50
2023-03-27T04:05:26.074Z,0.50
2023-03-27T04:07:59.291Z,0.40
2023-03-27T04:10:46.489Z,0.43
2023-03-27T04:13:24.015Z,0.43
2023-03-27T04:16:08.134Z,0.60
2023-03-27T04:18:41.428Z,0.38
2023-03-27T04:21:17.758Z,0.47
2023-03-27T04:23:48.548Z,0.52
2023-03-27T04:26:26.760Z,0.50
2023-03-27T04:29:13.782Z,0.50
2023-03-27T04:32:02.141Z,0.50
2023-03-27T04:34:43.252Z,0.47
2023-03-27T04:37:11.946Z,0.43
2023-03-27T04:39:46.193Z,0.45
2023-03-27T04:42:15.073Z,0.40
2023-03-27T04:44:46.462Z,0.60
2023-03-27T04:47:16.988Z,0.60
2023-03-27T04:49:47.122Z,0.32
2023-03-27T04:52:22.878Z,0.40
2023-03-27T04:54:51.313Z,0.63
2023-03-27T04:57:22.049Z,0.47
2023-03-27T04:59:51.303Z,0.50
2023-03-27T05:02:39.419Z,0.40
2023-03-27T05:05:18.255Z,0.43
2023-03-27T05:07:47.283Z,0.50
2023-03-27T05:10:21.556Z,0.65
2023-03-27T05:12:53.147Z,0.60
2023-03-27T05:15:22.537Z,0.98
2023-03-27T05:17:54.835Z,0.80
2023-03-27T05:20:26.314Z,0.80
2023-03-27T05:23:02.647Z,0.73
2023-03-27T05:25:33.236Z,0.63
2023-03-27T05:28:04.580Z,0.65
2023-03-27T05:30:36.228Z,0.93
2023-03-27T05:33:16.488Z,1.10
2023-03-27T05:35:47.170Z,0.90
2023-03-27T05:38:16.924Z,0.70
2023-03-27T05:40:57.381Z,0.73
2023-03-27T05:43:26.445Z,0.77
2023-03-27T05:45:54.972Z,0.65
2023-03-27T05:48:24.840Z,0.60
2023-03-27T05:50:53.513Z,0.70
2023-03-27T05:53:29.013Z,0.80
2023-03-27T05:56:15.041Z,1.10
2023-03-27T05:58:53.533Z,0.75
2023-03-27T06:01:23.566Z,0.90
2023-03-27T06:03:56.330Z,0.75
2023-03-27T06:06:42.870Z,0.68
2023-03-27T06:09:12.619Z,0.70
2023-03-27T06:11:44.837Z,0.77
2023-03-27T06:14:13.227Z,1.10
2023-03-27T06:17:16.106Z,0.63
2023-03-27T06:19:52.076Z,1.98
2023-03-27T06:22:20.564Z,1.00
2023-03-27T06:24:50.246Z,0.70
2023-03-27T06:27:21.120Z,0.90
2023-03-27T06:29:49.845Z,0.70
2023-03-27T06:32:18.340Z,0.90
2023-03-27T06:34:54.379Z,0.80
2023-03-27T06:37:42.675Z,1.00
2023-03-27T06:40:20.053Z,0.70
2023-03-27T06:42:54.258Z,1.13
2023-03-27T06:45:34.011Z,1.08
2023-03-27T06:48:25.505Z,0.90
2023-03-27T06:50:59.011Z,1.20
2023-03-27T06:53:28.654Z,0.80
2023-03-27T06:55:58.677Z,0.90
2023-03-27T06:58:29.822Z,0.90
2023-03-27T07:00:58.789Z,0.82
2023-03-27T07:03:46.038Z,1.05
2023-03-27T07:06:34.549Z,1.00
2023-03-27T07:09:09.631Z,0.90
2023-03-27T07:11:38.067Z,1.35
2023-03-27T07:14:10.273Z,1.17
2023-03-27T07:16:38.990Z,0.90
2023-03-27T07:19:07.599Z,0.90
2023-03-27T07:21:41.695Z,0.90
2023-03-27T07:24:12.218Z,1.15
2023-03-27T07:26:40.733Z,0.90
2023-03-27T07:29:15.625Z,0.90
2023-03-27T07:31:56.270Z,0.90
2023-03-27T07:34:34.169Z,1.30
2023-03-27T07:37:23.642Z,1.05
2023-03-27T07:40:13.580Z,0.80
2023-03-27T07:42:46.655Z,0.90
2023-03-27T07:45:22.463Z,0.90
2023-03-27T07:47:53.189Z,1.00
2023-03-27T07:50:22.640Z,1.10
2023-03-27T07:52:52.631Z,1.10
2023-03-27T07:55:23.003Z,1.00
2023-03-27T07:58:06.601Z,0.90
2023-03-27T08:00:36.801Z,1.02
2023-03-27T08:03:16.642Z,1.00
2023-03-27T08:05:54.494Z,0.90
2023-03-27T08:08:25.076Z,1.10
2023-03-27T08:11:04.014Z,0.90
2023-03-27T08:13:37.726Z,1.00
2023-03-27T08:16:11.297Z,0.88
2023-03-27T08:18:40.676Z,0.88
2023-03-27T08:21:11.739Z,0.90
2023-03-27T08:23:41.823Z,1.02
2023-03-27T08:26:42.787Z,0.88
2023-03-27T08:29:13.850Z,1.00
2023-03-27T08:31:44.732Z,0.82
2023-03-27T08:34:13.294Z,0.73
2023-03-27T08:36:46.430Z,0.90
2023-03-27T08:39:17.585Z,0.95
2023-03-27T08:42:06.007Z,1.00
2023-03-27T08:44:41.411Z,0.75
2023-03-27T08:47:18.031Z,0.93
2023-03-27T08:49:59.309Z,1.08
2023-03-27T08:52:49.981Z,0.80
2023-03-27T08:55:34.627Z,1.10
2023-03-27T08:58:19.694Z,0.80
2023-03-27T09:00:58.407Z,1.10
2023-03-27T09:03:32.458Z,0.70
2023-03-27T09:06:08.596Z,0.80
2023-03-27T09:08:49.606Z,0.90
2023-03-27T09:11:33.342Z,1.10
2023-03-27T09:14:13.622Z,1.00
2023-03-27T09:16:49.312Z,1.00
2023-03-27T09:19:38.042Z,0.80
2023-03-27T09:22:12.815Z,1.20
2023-03-27T09:24:54.354Z,1.10
2023-03-27T09:27:52.990Z,1.20
2023-03-27T09:30:42.241Z,0.98
2023-03-27T09:33:19.745Z,0.93
2023-03-27T09:35:49.216Z,1.15
2023-03-27T09:38:27.835Z,1.30
2023-03-27T09:41:00.215Z,1.17
2023-03-27T09:43:41.625Z,0.90
2023-03-27T09:46:18.050Z,0.90
2023-03-27T09:48:56.728Z,1.10
2023-03-27T09:51:43.199Z,1.30
2023-03-27T09:54:52.876Z,1.00
2023-03-27T09:57:33.627Z,0.98
2023-03-27T10:00:14.693Z,1.02
2023-03-27T10:02:43.292Z,1.00
2023-03-27T10:05:18.414Z,0.68
2023-03-27T10:07:50.981Z,0.60
2023-03-27T10:10:42.438Z,0.75
2023-03-27T10:13:31.249Z,0.88
2023-03-27T10:16:05.975Z,0.65
2023-03-27T10:18:45.416Z,0.60
2023-03-27T10:21:25.487Z,0.40
2023-03-27T10:24:01.312Z,0.40
2023-03-27T10:26:49.899Z,0.52
2023-03-27T10:29:24.555Z,0.40
2023-03-27T10:31:56.651Z,0.47
2023-03-27T10:34:38.004Z,0.52
2023-03-27T10:37:21.627Z,0.30
2023-03-27T10:39:57.947Z,0.38
2023-03-27T10:42:37.156Z,0.45
2023-03-27T10:45:09.559Z,0.52
2023-03-27T10:47:40.155Z,0.40
2023-03-27T10:50:16.007Z,0.40
2023-03-27T10:53:00.395Z,0.30
2023-03-27T10:55:51.712Z,0.70
2023-03-27T10:58:32.535Z,0.40
2023-03-27T11:01:07.217Z,0.63
2023-03-27T11:03:45.371Z,0.30
2023-03-27T11:06:16.263Z,0.55
2023-03-27T11:08:58.282Z,0.28
2023-03-27T11:11:31.060Z,0.50
2023-03-27T11:14:05.700Z,0.20
2023-03-27T11:16:38.781Z,0.60
2023-03-27T11:19:39.183Z,0.80
2023-03-27T11:22:30.822Z,0.57
2023-03-27T11:25:05.785Z,0.50
2023-03-27T11:27:41.152Z,0.50
2023-03-27T11:30:31.705Z,0.43
2023-03-27T11:33:10.436Z,0.40
2023-03-27T11:35:47.252Z,0.70
2023-03-27T11:38:42.078Z,0.50
2023-03-27T11:41:15.220Z,0.55
2023-03-27T11:43:44.768Z,0.35
2023-03-27T11:46:51.312Z,0.30
2023-03-27T11:49:36.238Z,0.60
2023-03-27T11:52:22.126Z,0.40
2023-03-27T11:55:06.675Z,0.40
2023-03-27T11:57:52.457Z,0.30
2023-03-27T12:00:39.248Z,0.40
2023-03-27T12:03:48.871Z,0.40
2023-03-27T12:06:34.212Z,0.75
2023-03-27T12:09:21.607Z,0.50
2023-03-27T12:12:28.844Z,0.60
2023-03-27T12:15:13.857Z,0.30
2023-03-27T12:17:54.786Z,0.57
2023-03-27T12:20:52.990Z,0.45
2023-03-27T12:23:38.937Z,0.47
2023-03-27T12:27:09.524Z,0.30
2023-03-27T12:30:07.758Z,0.50
2023-03-27T12:32:55.673Z,0.60
2023-03-27T12:35:27.972Z,0.40
2023-03-27T12:37:59.440Z,0.50
2023-03-27T12:40:32.314Z,0.32
2023-03-27T12:43:26.700Z,0.50
2023-03-27T12:46:31.615Z,0.38
2023-03-27T12:49:22.554Z,0.50
2023-03-27T12:52:05.270Z,0.45
2023-03-27T12:55:11.465Z,0.50
2023-03-27T12:58:05.717Z,0.50
2023-03-27T13:01:09.238Z,0.38
2023-03-27T13:04:01.678Z,0.47
2023-03-27T13:06:44.546Z,0.43
2023-03-27T13:09:31.257Z,0.30
2023-03-27T13:12:24.749Z,0.55
2023-03-27T13:15:11.896Z,0.50
2023-03-27T13:17:53.294Z,0.35
2023-03-27T13:20:34.886Z,0.50
2023-03-27T13:23:17.158Z,0.70
2023-03-27T13:26:08.494Z,0.50
2023-03-27T13:28:48.349Z,0.40
2023-03-27T13:31:51.511Z,0.40
2023-03-27T13:34:42.556Z,0.45
2023-03-27T13:38:00.978Z,0.50
2023-03-27T13:40:44.449Z,0.30
2023-03-27T13:43:26.102Z,0.40
2023-03-27T13:46:06.071Z,0.52
2023-03-27T13:49:00.303Z,0.50
2023-03-27T13:52:13.315Z,0.40
2023-03-27T13:55:05.930Z,0.38
2023-03-27T13:58:06.817Z,0.40
2023-03-27T14:00:56.715Z,0.43
2023-03-27T14:03:56.732Z,0.60
2023-03-27T14:07:16.949Z,0.20
2023-03-27T14:10:19.650Z,0.50
2023-03-27T14:13:15.650Z,0.60
2023-03-27T14:16:07.181Z,0.43
2023-03-27T14:19:02.326Z,0.35
2023-03-27T14:21:50.787Z,0.43
2023-03-27T14:24:32.354Z,0.60
2023-03-27T14:27:15.904Z,0.47
2023-03-27T14:29:45.110Z,0.45
2023-03-27T14:32:18.013Z,0.38
2023-03-27T14:34:54.969Z,0.50
2023-03-27T14:37:36.991Z,0.52
2023-03-27T14:40:23.126Z,0.52
2023-03-27T14:42:56.501Z,0.28
2023-03-27T14:45:27.706Z,0.38
2023-03-27T14:48:01.297Z,0.30
2023-03-27T14:50:38.253Z,0.30
2023-03-27T14:53:10.874Z,0.50
2023-03-27T14:56:27.568Z,0.30
2023-03-27T14:58:59.557Z,0.32
2023-03-27T15:01:36.394Z,0.50
2023-03-27T15:04:11.179Z,0.60
2023-03-27T15:06:41.859Z,0.43
2023-03-27T15:09:15.514Z,0.70
2023-03-27T15:12:04.230Z,0.60
2023-03-27T15:14:35.149Z,0.60
2023-03-27T15:17:07.733Z,0.80
2023-03-27T15:19:45.593Z,0.50
2023-03-27T15:22:24.428Z,0.93
2023-03-27T15:24:57.165Z,0.63
2023-03-27T15:27:30.910Z,0.70
2023-03-27T15:30:04.603Z,0.50
2023-03-27T15:32:42.433Z,0.70
2023-03-27T15:35:16.692Z,0.57
2023-03-27T15:40:36.887Z,0.50
2023-03-27T15:43:22.046Z,0.77
2023-03-27T15:46:12.560Z,1.20
2023-03-27T15:48:45.119Z,1.17
2023-03-27T15:51:28.611Z,1.00
2023-03-27T15:53:57.396Z,0.95
2023-03-27T15:56:29.151Z,1.00
2023-03-27T15:59:02.552Z,0.80
2023-03-27T16:01:33.880Z,0.70
2023-03-27T16:04:07.234Z,0.90
2023-03-27T16:06:39.602Z,0.80
2023-03-27T16:09:23.225Z,0.75
2023-03-27T16:11:54.046Z,0.70
2023-03-27T16:14:30.352Z,0.65
2023-03-27T16:17:22.486Z,0.65
2023-03-27T16:19:53.980Z,0.50
2023-03-27T16:22:27.194Z,0.65
2023-03-27T16:24:56.674Z,0.57
2023-03-27T16:27:29.144Z,0.52
2023-03-27T16:29:58.986Z,0.45
2023-03-27T16:32:27.523Z,0.40
2023-03-27T16:34:56.087Z,0.63
2023-03-27T16:37:27.099Z,0.68
2023-03-27T16:39:56.105Z,0.70
2023-03-27T16:42:26.613Z,0.60
2023-03-27T16:44:55.339Z,0.50
2023-03-27T16:47:25.479Z,0.60
2023-03-27T16:50:10.320Z,0.60
2023-03-27T16:52:40.017Z,0.43
2023-03-27T16:55:09.389Z,0.25
2023-03-27T16:57:37.864Z,0.52
2023-03-27T17:00:09.394Z,0.55
2023-03-27T17:02:39.819Z,0.50
2023-03-27T17:05:09.830Z,0.40
2023-03-27T17:07:38.379Z,0.50
2023-03-27T17:10:08.386Z,0.30
2023-03-27T17:12:37.006Z,0.30
2023-03-27T17:15:06.311Z,0.25
2023-03-27T17:17:34.786Z,0.10
2023-03-27T17:20:07.641Z,0.10
2023-03-27T17:22:36.379Z,0.10
2023-03-27T17:25:06.061Z,0.20
2023-03-27T17:27:34.955Z,0.10
2023-03-27T17:30:04.883Z,0.10
2023-03-27T17:32:33.410Z,0.10
2023-03-27T17:35:04.412Z,0.10
2023-03-27T17:37:35.024Z,0.38
2023-03-27T17:40:05.992Z,0.30
2023-03-27T17:42:34.442Z,0.30
2023-03-27T17:45:02.877Z,0.17
2023-03-27T17:47:31.685Z,0.20
2023-03-27T17:50:00.231Z,0.20
2023-03-27T17:52:28.714Z,0.20
2023-03-27T17:54:59.963Z,0.20
2023-03-27T17:57:29.539Z,0.30
2023-03-27T17:59:58.017Z,0.40
2023-03-27T18:02:26.579Z,0.32
2023-03-27T18:04:55.392Z,0.30
2023-03-27T18:07:24.460Z,0.32
2023-03-27T18:09:53.176Z,0.20
2023-03-27T18:12:23.107Z,0.10
2023-03-27T18:14:51.585Z,0.10
2023-03-27T18:17:21.139Z,0.05
2023-03-27T18:19:49.572Z,0.20
2023-03-27T18:22:18.029Z,0.05
2023-03-27T18:24:46.477Z,0.30
2023-03-27T18:27:16.411Z,0.28
2023-03-27T18:29:46.323Z,0.10
2023-03-27T18:32:14.833Z,0.10
2023-03-27T18:34:43.357Z,0.00
2023-03-27T18:37:11.917Z,0.30
2023-03-27T18:39:40.403Z,0.13
2023-03-27T18:42:09.619Z,0.10
2023-03-27T18:44:39.866Z,0.20
2023-03-27T18:47:10.946Z,0.10
2023-03-27T18:49:39.841Z,0.30
2023-03-27T18:52:09.917Z,0.20
2023-03-27T18:54:39.793Z,0.20
2023-03-27T18:57:08.350Z,0.10
2023-03-27T18:59:36.937Z,0.10
2023-03-27T19:02:05.611Z,0.10
2023-03-27T19:04:35.537Z,0.20
2023-03-27T19:07:04.029Z,0.13
2023-03-27T19:09:41.065Z,0.20
2023-03-27T19:12:10.975Z,0.10
2023-03-27T19:15:02.204Z,0.20
2023-03-27T19:18:01.270Z,0.30
2023-03-27T19:20:49.757Z,0.00
2023-03-27T19:23:28.475Z,0.17
2023-03-27T19:26:00.946Z,0.10
2023-03-27T19:28:29.402Z,0.10
2023-03-27T19:31:05.350Z,0.20
2023-03-27T19:33:33.918Z,0.10
2023-03-27T19:36:03.869Z,0.35
2023-03-27T19:38:32.537Z,0.65
2023-03-27T19:41:02.143Z,0.80
2023-03-27T19:43:34.120Z,0.60
2023-03-27T19:46:14.851Z,0.80
2023-03-27T19:48:45.369Z,1.13
2023-03-27T19:51:53.856Z,0.98
2023-03-27T19:54:22.390Z,0.60
2023-03-27T19:56:50.951Z,0.77
2023-03-27T19:59:29.931Z,0.60
2023-03-27T20:01:59.262Z,0.80
2023-03-27T20:04:27.731Z,0.52
2023-03-27T20:07:01.941Z,0.57
2023-03-27T20:09:30.760Z,0.50
2023-03-27T20:11:59.353Z,0.70
2023-03-27T20:14:30.893Z,0.50
2023-03-27T20:16:59.343Z,0.60
2023-03-27T20:19:30.156Z,0.50
2023-03-27T20:22:03.994Z,0.90
2023-03-27T20:24:32.473Z,0.80
2023-03-27T20:27:02.186Z,0.70
2023-03-27T20:29:30.683Z,0.65
2023-03-27T20:31:59.153Z,0.60
2023-03-27T20:34:27.629Z,0.52
2023-03-27T20:36:58.885Z,0.80
2023-03-27T20:39:38.718Z,0.55
2023-03-27T20:42:07.727Z,0.60
2023-03-27T20:44:36.489Z,0.77
2023-03-27T20:47:10.992Z,0.73
2023-03-27T20:49:42.786Z,0.50
2023-03-27T20:52:13.158Z,0.63
2023-03-27T20:54:43.367Z,0.70
2023-03-27T20:57:13.874Z,0.50
2023-03-27T20:59:42.400Z,0.60
2023-03-27T21:02:16.658Z,0.70
2023-03-27T21:04:46.510Z,0.70
2023-03-27T21:07:15.796Z,0.57
2023-03-27T21:09:47.968Z,0.70
2023-03-27T21:12:16.517Z,0.70
2023-03-27T21:14:44.965Z,0.77
2023-03-27T21:17:13.990Z,0.50
2023-03-27T21:19:42.406Z,0.60
2023-03-27T21:22:11.104Z,0.60
2023-03-27T21:24:41.314Z,0.73
2023-03-27T21:27:11.243Z,0.60
2023-03-27T21:29:39.764Z,0.70
2023-03-27T21:32:09.214Z,0.50
2023-03-27T21:34:37.762Z,0.80
2023-03-27T21:37:06.153Z,0.70
2023-03-27T21:39:34.885Z,0.75
2023-03-27T21:42:03.357Z,0.50
2023-03-27T21:44:33.235Z,0.70
2023-03-27T21:47:01.705Z,0.60
2023-03-27T21:49:30.176Z,0.60
2023-03-27T21:51:58.646Z,0.55
2023-03-27T21:54:27.090Z,0.52
2023-03-27T21:56:55.731Z,0.47
2023-03-27T21:59:25.105Z,0.70
2023-03-27T22:01:55.077Z,0.80
2023-03-27T22:04:23.799Z,0.70
2023-03-27T22:06:52.460Z,0.70
2023-03-27T22:09:21.066Z,0.52
2023-03-27T22:11:49.591Z,0.70
2023-03-27T22:14:18.150Z,0.68
2023-03-27T22:16:46.645Z,0.50
2023-03-27T22:19:16.522Z,0.68
2023-03-27T22:21:45.028Z,0.55
2023-03-27T22:24:13.567Z,0.70
2023-03-27T22:26:42.023Z,0.82
2023-03-27T22:29:10.797Z,0.47
2023-03-27T22:31:39.315Z,0.50
2023-03-27T22:34:07.743Z,0.57
2023-03-27T22:36:37.619Z,0.60
2023-03-27T22:39:06.181Z,0.80
2023-03-27T22:41:34.665Z,0.70
2023-03-27T22:44:03.291Z,0.70
2023-03-27T22:46:31.782Z,0.60
2023-03-27T22:49:00.729Z,0.50
2023-03-27T22:51:30.849Z,0.70
2023-03-27T22:54:00.808Z,0.68
2023-03-27T22:56:29.332Z,0.60
2023-03-27T22:58:57.948Z,0.60
2023-03-27T23:01:26.472Z,0.43
2023-03-27T23:03:55.159Z,0.73
2023-03-27T23:06:24.705Z,0.63
2023-03-27T23:08:53.544Z,0.50
2023-03-27T23:11:23.508Z,0.80
2023-03-27T23:13:52.038Z,0.50
2023-03-27T23:16:20.612Z,0.70
2023-03-27T23:18:49.254Z,0.60
2023-03-27T23:21:17.948Z,0.77
2023-03-27T23:23:47.431Z,0.80
2023-03-27T23:26:16.179Z,1.92
2023-03-27T23:28:46.207Z,0.70
2023-03-27T23:31:16.278Z,0.70
2023-03-27T23:33:46.991Z,0.70
2023-03-27T23:36:17.595Z,0.75
2023-03-27T23:38:46.167Z,0.93
2023-03-27T23:41:16.180Z,0.80
2023-03-27T23:43:46.324Z,0.80
2023-03-27T23:46:15.458Z,0.70
2023-03-27T23:48:45.143Z,0.60
2023-03-27T23:51:15.250Z,0.90
2023-03-27T23:53:44.024Z,0.60
2023-03-27T23:56:12.767Z,0.70
2023-03-27T23:58:41.382Z,0.80
